Pula, Croatia
Current Conditions -  °F | °C
As of 5:30 PM on Wednesday 22 Oct 2014 (Local Time) from LDPL Reporting Station
Clear Clear  
Wind Chill: 57°   Ceiling: Unl
Heat Index: 57°   Visibility: 6mi
Dew Point: 39°   Wind: 3mph
Humidity: 51%   Direction: NA
Pressure: 29.74"   Gusts: NA
Location:  44.88°N, 13.84°E
Report Text: LDPL 221530Z VRB03KT CAVOK 14/04 Q1007 NOSIG
Loading
Personal Weather Stations






























Interactive Weather Map
Tropical Storm Tracking
New forecast layout! Learn more

10-Day Weather Forecast

Advertisements
Track Severe Weather on mobile